createdAt,value
2022-08-16T00:01:35.787Z,38.58
2022-08-16T00:04:09.703Z,36.42
2022-08-16T00:06:39.311Z,34.70
2022-08-16T00:09:10.722Z,32.05
2022-08-16T00:11:38.472Z,31.58
2022-08-16T00:14:09.126Z,37.55
2022-08-16T00:17:01.502Z,34.55
2022-08-16T00:19:28.214Z,33.78
2022-08-16T00:22:01.019Z,36.22
2022-08-16T00:24:32.651Z,31.02
2022-08-16T00:27:01.011Z,34.70
2022-08-16T00:29:29.536Z,31.92
2022-08-16T00:32:00.435Z,29.23
2022-08-16T00:34:44.248Z,32.15
2022-08-16T00:37:18.594Z,33.55
2022-08-16T00:39:58.483Z,34.05
2022-08-16T00:42:29.560Z,32.33
2022-08-16T00:45:06.321Z,34.95
2022-08-16T00:47:35.253Z,28.55
2022-08-16T00:50:08.201Z,29.83
2022-08-16T00:52:50.579Z,29.40
2022-08-16T00:55:22.290Z,33.65
2022-08-16T00:57:59.242Z,31.13
2022-08-16T01:00:30.541Z,31.92
2022-08-16T01:03:01.015Z,29.75
2022-08-16T01:05:29.145Z,31.38
2022-08-16T01:07:57.394Z,28.60
2022-08-16T01:10:31.295Z,29.45
2022-08-16T01:13:00.312Z,31.27
2022-08-16T01:15:28.784Z,31.05
2022-08-16T01:17:58.363Z,29.23
2022-08-16T01:20:30.354Z,30.55
2022-08-16T01:23:04.724Z,28.77
2022-08-16T01:25:40.144Z,36.17
2022-08-16T01:28:10.683Z,29.02
2022-08-16T01:30:50.619Z,25.15
2022-08-16T01:33:19.832Z,25.70
2022-08-16T01:35:53.799Z,28.10
2022-08-16T01:38:28.565Z,34.00
2022-08-16T01:41:01.896Z,34.20
2022-08-16T01:43:31.144Z,26.13
2022-08-16T01:46:37.979Z,29.38
2022-08-16T01:48:48.636Z,30.95
2022-08-16T01:51:17.901Z,26.77
2022-08-16T01:53:55.169Z,30.30
2022-08-16T01:56:30.721Z,25.05
2022-08-16T01:59:01.186Z,27.98
2022-08-16T02:01:29.216Z,34.38
2022-08-16T02:03:58.163Z,29.00
2022-08-16T02:06:34.786Z,26.02
2022-08-16T02:09:05.331Z,28.70
2022-08-16T02:11:47.387Z,27.88
2022-08-16T02:14:18.601Z,33.67
2022-08-16T02:16:49.352Z,27.52
2022-08-16T02:19:18.222Z,35.33
2022-08-16T02:22:08.375Z,33.53
2022-08-16T02:24:41.061Z,33.20
2022-08-16T02:27:11.402Z,29.80
2022-08-16T02:29:41.368Z,28.05
2022-08-16T02:32:50.325Z,32.50
2022-08-16T02:34:57.925Z,38.25
2022-08-16T02:37:39.758Z,30.75
2022-08-16T02:40:16.753Z,30.83
2022-08-16T02:42:45.754Z,28.63
2022-08-16T02:45:18.538Z,33.67
2022-08-16T02:48:01.149Z,31.40
2022-08-16T02:51:05.876Z,30.90
2022-08-16T02:53:23.689Z,29.75
2022-08-16T02:55:51.414Z,30.27
2022-08-16T02:58:20.462Z,27.00
2022-08-16T03:03:21.136Z,30.08
2022-08-16T03:05:52.425Z,29.42
2022-08-16T03:08:50.761Z,29.17
2022-08-16T03:11:16.455Z,30.20
2022-08-16T03:13:51.701Z,26.65
2022-08-16T03:16:37.845Z,30.42
2022-08-16T03:19:08.255Z,29.10
2022-08-16T03:21:37.716Z,27.58
2022-08-16T03:24:29.216Z,30.30
2022-08-16T03:26:58.034Z,28.80
2022-08-16T03:29:30.326Z,29.50
2022-08-16T03:32:01.228Z,28.98
2022-08-16T03:34:30.128Z,30.48
2022-08-16T03:36:58.867Z,28.13
2022-08-16T03:39:27.147Z,31.50
2022-08-16T03:41:59.675Z,32.22
2022-08-16T03:44:44.184Z,34.40
2022-08-16T03:47:19.331Z,28.80
2022-08-16T03:49:51.307Z,31.23
2022-08-16T03:52:20.398Z,28.08
2022-08-16T03:54:53.683Z,32.53
2022-08-16T03:57:31.445Z,30.38
2022-08-16T04:00:20.421Z,28.75
2022-08-16T04:03:07.350Z,29.00
2022-08-16T04:05:40.391Z,33.65
2022-08-16T04:08:23.291Z,28.10
2022-08-16T04:10:54.989Z,32.05
2022-08-16T04:14:00.655Z,33.40
2022-08-16T04:16:27.271Z,34.13
2022-08-16T04:19:02.423Z,44.17
2022-08-16T04:21:32.379Z,34.70
2022-08-16T04:24:01.307Z,38.58
2022-08-16T04:26:31.141Z,36.40
2022-08-16T04:29:16.876Z,36.15
2022-08-16T04:31:56.299Z,40.85
2022-08-16T04:34:28.995Z,33.90
2022-08-16T04:36:58.879Z,34.08
2022-08-16T04:39:36.645Z,34.58
2022-08-16T04:42:13.796Z,41.25
2022-08-16T04:44:54.120Z,36.00
2022-08-16T04:47:33.177Z,42.10
2022-08-16T04:50:06.500Z,44.75
2022-08-16T04:52:36.088Z,47.90
2022-08-16T04:55:07.564Z,59.60
2022-08-16T04:57:36.918Z,51.78
2022-08-16T05:00:30.580Z,44.90
2022-08-16T05:02:58.977Z,47.72
2022-08-16T05:05:32.997Z,60.17
2022-08-16T05:08:28.910Z,57.78
2022-08-16T05:11:00.257Z,55.47
2022-08-16T05:13:41.027Z,54.53
2022-08-16T05:16:16.596Z,48.85
2022-08-16T05:18:51.836Z,45.92
2022-08-16T05:21:20.891Z,46.15
2022-08-16T05:23:58.458Z,45.13
2022-08-16T05:26:30.616Z,50.65
2022-08-16T05:29:03.703Z,42.90
2022-08-16T05:31:31.918Z,46.72
2022-08-16T05:34:04.326Z,43.95
2022-08-16T05:36:36.780Z,44.33
2022-08-16T05:39:08.627Z,47.47
2022-08-16T05:41:45.201Z,47.20
2022-08-16T05:44:24.051Z,41.70
2022-08-16T05:46:55.804Z,45.42
2022-08-16T05:49:39.517Z,50.13
2022-08-16T05:52:11.135Z,59.78
2022-08-16T05:54:46.022Z,56.28
2022-08-16T05:57:15.990Z,59.78
2022-08-16T05:59:45.408Z,50.47
2022-08-16T06:02:14.920Z,64.88
2022-08-16T06:04:46.201Z,57.75
2022-08-16T06:07:25.085Z,60.28
2022-08-16T06:10:00.195Z,50.40
2022-08-16T06:12:31.020Z,46.03
2022-08-16T06:15:08.070Z,36.38
2022-08-16T06:17:43.967Z,44.50
2022-08-16T06:20:23.975Z,33.80
2022-08-16T06:22:58.977Z,35.33
2022-08-16T06:25:39.590Z,46.05
2022-08-16T06:28:10.250Z,44.17
2022-08-16T06:30:45.350Z,35.17
2022-08-16T06:33:22.382Z,31.63
2022-08-16T06:35:54.643Z,33.65
2022-08-16T06:38:33.923Z,37.67
2022-08-16T06:41:13.399Z,29.35
2022-08-16T06:43:42.552Z,22.73
2022-08-16T06:46:24.260Z,22.65
2022-08-16T06:49:00.300Z,24.50
2022-08-16T06:51:46.178Z,29.67
2022-08-16T06:54:17.898Z,26.65
2022-08-16T06:56:45.774Z,24.70
2022-08-16T06:59:15.048Z,19.95
2022-08-16T07:01:54.396Z,21.25
2022-08-16T07:04:32.815Z,24.40
2022-08-16T07:07:09.922Z,22.98
2022-08-16T07:09:38.131Z,20.77
2022-08-16T07:12:06.154Z,17.75
2022-08-16T07:14:37.062Z,17.13
2022-08-16T07:17:07.989Z,15.75
2022-08-16T07:20:03.053Z,18.20
2022-08-16T07:22:37.604Z,16.40
2022-08-16T07:25:29.705Z,15.93
2022-08-16T07:27:57.501Z,18.02
2022-08-16T07:30:45.591Z,13.40
2022-08-16T07:33:51.445Z,17.02
2022-08-16T07:36:21.975Z,20.20
2022-08-16T07:38:52.186Z,17.85
2022-08-16T07:41:19.880Z,14.52
2022-08-16T07:43:52.358Z,16.83
2022-08-16T07:46:38.566Z,17.05
2022-08-16T07:49:13.589Z,12.70
2022-08-16T07:51:42.374Z,11.98
2022-08-16T07:54:20.790Z,10.98
2022-08-16T07:56:49.083Z,20.85
2022-08-16T07:59:16.877Z,18.70
2022-08-16T08:01:44.386Z,15.55
2022-08-16T08:04:13.291Z,16.70
2022-08-16T08:06:43.031Z,13.50
2022-08-16T08:09:16.299Z,13.07
2022-08-16T08:12:00.704Z,15.90
2022-08-16T08:14:34.075Z,12.13
2022-08-16T08:17:01.931Z,11.05
2022-08-16T08:19:31.991Z,14.63
2022-08-16T08:22:02.483Z,15.43
2022-08-16T08:24:39.961Z,18.35
2022-08-16T08:27:11.610Z,11.73
2022-08-16T08:29:40.337Z,12.32
2022-08-16T08:32:57.881Z,13.60
2022-08-16T08:35:04.685Z,15.40
2022-08-16T08:37:55.280Z,12.43
2022-08-16T08:40:27.507Z,15.90
2022-08-16T08:43:00.295Z,14.57
2022-08-16T08:45:47.074Z,12.55
2022-08-16T08:48:34.767Z,14.98
2022-08-16T08:51:09.024Z,13.90
2022-08-16T08:53:45.741Z,17.35
2022-08-16T08:56:34.773Z,12.15
2022-08-16T08:59:27.544Z,22.27
2022-08-16T09:01:57.965Z,19.52
2022-08-16T09:04:30.042Z,13.60
2022-08-16T09:07:01.317Z,13.25
2022-08-16T09:09:33.562Z,15.73
2022-08-16T09:12:06.372Z,14.02
2022-08-16T09:14:49.376Z,12.48
2022-08-16T09:17:45.439Z,12.32
2022-08-16T09:20:13.461Z,12.95
2022-08-16T09:22:42.223Z,14.50
2022-08-16T09:25:13.069Z,12.10
2022-08-16T09:27:56.679Z,9.13
2022-08-16T09:30:31.772Z,13.75
2022-08-16T09:33:06.795Z,11.40
2022-08-16T09:35:38.615Z,11.13
2022-08-16T09:38:08.586Z,8.73
2022-08-16T09:40:42.909Z,11.20
2022-08-16T09:43:46.511Z,10.63
2022-08-16T09:46:00.999Z,12.73
2022-08-16T09:48:44.307Z,11.93
2022-08-16T09:51:14.131Z,9.67
2022-08-16T09:53:43.246Z,13.15
2022-08-16T09:56:17.767Z,13.32
2022-08-16T09:59:05.591Z,11.95
2022-08-16T10:01:36.203Z,12.63
2022-08-16T10:04:04.730Z,10.25
2022-08-16T10:06:34.360Z,13.27
2022-08-16T10:09:05.520Z,7.70
2022-08-16T10:11:52.423Z,10.10
2022-08-16T10:14:24.525Z,6.97
2022-08-16T10:17:02.406Z,9.02
2022-08-16T10:19:31.854Z,12.15
2022-08-16T10:22:04.822Z,18.10
2022-08-16T10:24:33.373Z,9.30
2022-08-16T10:27:25.751Z,10.05
2022-08-16T10:29:59.196Z,11.65
2022-08-16T10:32:30.669Z,6.97
2022-08-16T10:35:00.315Z,8.90
2022-08-16T10:37:32.928Z,9.13
2022-08-16T10:40:03.949Z,9.43
2022-08-16T10:42:31.379Z,12.88
2022-08-16T10:45:00.236Z,8.18
2022-08-16T10:47:28.152Z,8.27
2022-08-16T10:50:00.333Z,8.63
2022-08-16T10:52:27.969Z,11.23
2022-08-16T10:55:40.231Z,8.63
2022-08-16T10:57:48.939Z,8.38
2022-08-16T11:00:20.857Z,12.00
2022-08-16T11:02:58.565Z,13.38
2022-08-16T11:05:59.097Z,10.23
2022-08-16T11:08:17.943Z,8.32
2022-08-16T11:19:12.826Z,8.50
2022-08-16T11:24:42.878Z,9.43
2022-08-16T11:29:52.951Z,8.80
2022-08-16T11:32:30.109Z,9.57
2022-08-16T11:35:11.063Z,6.38
2022-08-16T11:40:38.520Z,8.23
2022-08-16T11:43:06.916Z,8.07
2022-08-16T11:45:38.253Z,9.37
2022-08-16T11:48:07.640Z,7.53
2022-08-16T11:50:35.849Z,7.82
2022-08-16T11:53:04.533Z,11.50
2022-08-16T11:55:32.103Z,8.00
2022-08-16T11:58:00.125Z,6.40
2022-08-16T12:00:33.866Z,9.65
2022-08-16T12:03:17.747Z,12.05
2022-08-16T12:05:46.224Z,11.10
2022-08-16T12:08:19.380Z,8.98
2022-08-16T12:10:47.167Z,8.35
2022-08-16T12:13:15.036Z,9.30
2022-08-16T12:15:43.653Z,14.55
2022-08-16T12:18:20.754Z,9.30
2022-08-16T12:20:50.282Z,9.77
2022-08-16T12:23:17.989Z,10.05
2022-08-16T12:25:46.134Z,9.57
2022-08-16T12:28:13.771Z,8.20
2022-08-16T12:30:45.825Z,8.80
2022-08-16T12:33:25.196Z,8.68
2022-08-16T12:35:54.847Z,10.90
2022-08-16T12:38:40.860Z,9.45
2022-08-16T12:41:09.869Z,8.98
2022-08-16T12:43:45.124Z,10.88
2022-08-16T12:46:13.371Z,8.68
2022-08-16T12:48:58.300Z,8.52
2022-08-16T12:51:58.843Z,8.07
2022-08-16T12:56:46.843Z,7.20
2022-08-16T12:59:19.910Z,7.82
2022-08-16T13:01:50.428Z,9.77
2022-08-16T13:04:25.514Z,10.75
2022-08-16T13:06:54.828Z,13.63
2022-08-16T13:09:26.506Z,11.52
2022-08-16T13:12:05.448Z,7.78
2022-08-16T13:14:38.165Z,10.13
2022-08-16T13:17:07.955Z,9.23
2022-08-16T13:20:05.468Z,9.50
2022-08-16T13:22:25.081Z,9.00
2022-08-16T13:24:53.534Z,7.13
2022-08-16T13:28:01.788Z,12.07
2022-08-16T13:30:22.087Z,10.60
2022-08-16T13:32:58.476Z,8.38
2022-08-16T13:35:34.542Z,9.13
2022-08-16T13:38:03.815Z,9.18
2022-08-16T13:40:34.109Z,10.90
2022-08-16T13:43:02.439Z,10.13
2022-08-16T13:45:36.150Z,9.13
2022-08-16T13:48:05.357Z,14.02
2022-08-16T13:50:51.517Z,13.98
2022-08-16T13:53:24.421Z,8.60
2022-08-16T13:55:58.512Z,9.95
2022-08-16T13:58:35.431Z,7.85
2022-08-16T14:01:09.698Z,19.05
2022-08-16T14:03:38.517Z,8.00
2022-08-16T14:06:07.392Z,8.30
2022-08-16T14:08:42.141Z,10.57
2022-08-16T14:11:12.050Z,7.53
2022-08-16T14:13:40.394Z,12.40
2022-08-16T14:16:12.355Z,10.15
2022-08-16T14:18:50.738Z,6.85
2022-08-16T14:21:21.901Z,8.98
2022-08-16T14:23:52.836Z,8.93
2022-08-16T14:26:21.290Z,8.35
2022-08-16T14:28:50.259Z,8.65
2022-08-16T14:31:18.723Z,7.40
2022-08-16T14:33:46.798Z,10.13
2022-08-16T14:36:18.750Z,18.52
2022-08-16T14:38:58.510Z,7.47
2022-08-16T14:41:25.959Z,10.50
2022-08-16T14:43:53.373Z,12.68
2022-08-16T14:46:21.262Z,10.45
2022-08-16T14:48:48.858Z,10.35
2022-08-16T14:51:16.569Z,11.75
2022-08-16T14:53:45.112Z,8.70
2022-08-16T14:56:17.388Z,5.97
2022-08-16T14:59:01.760Z,6.88
2022-08-16T15:01:41.533Z,8.77
2022-08-16T15:04:39.774Z,6.32
2022-08-16T15:07:05.188Z,6.47
2022-08-16T15:09:32.822Z,8.45
2022-08-16T15:12:27.162Z,8.35
2022-08-16T15:15:04.432Z,7.82
2022-08-16T15:17:41.812Z,12.13
2022-08-16T15:20:21.612Z,6.28
2022-08-16T15:22:52.985Z,8.80
2022-08-16T15:25:27.626Z,8.43
2022-08-16T15:28:02.152Z,9.07
2022-08-16T15:30:56.979Z,11.15
2022-08-16T15:33:20.210Z,7.93
2022-08-16T15:35:50.041Z,6.43
2022-08-16T15:38:58.011Z,10.57
2022-08-16T15:41:05.280Z,6.13
2022-08-16T15:43:39.938Z,6.70
2022-08-16T15:46:35.364Z,8.68
2022-08-16T15:49:12.112Z,8.63
2022-08-16T15:51:39.800Z,5.95
2022-08-16T15:54:21.334Z,6.43
2022-08-16T15:56:56.191Z,6.38
2022-08-16T15:59:27.153Z,10.63
2022-08-16T16:01:54.664Z,7.47
2022-08-16T16:04:23.392Z,7.70
2022-08-16T16:06:54.974Z,7.55
2022-08-16T16:09:26.112Z,6.25
2022-08-16T16:12:16.242Z,5.72
2022-08-16T16:14:53.145Z,7.60
2022-08-16T16:17:20.673Z,6.05
2022-08-16T16:19:49.777Z,6.28
2022-08-16T16:22:21.306Z,6.80
2022-08-16T16:24:50.228Z,8.40
2022-08-16T16:27:17.673Z,6.30
2022-08-16T16:29:46.306Z,5.18
2022-08-16T16:32:33.222Z,7.00
2022-08-16T16:35:03.017Z,9.85
2022-08-16T16:37:31.966Z,8.60
2022-08-16T16:39:59.835Z,11.07
2022-08-16T16:42:29.917Z,6.72
2022-08-16T16:45:01.230Z,12.77
2022-08-16T16:47:30.785Z,6.13
2022-08-16T16:50:09.920Z,7.00
2022-08-16T16:52:43.955Z,10.98
2022-08-16T16:55:14.798Z,6.88
2022-08-16T16:57:59.731Z,10.02
2022-08-16T17:00:37.524Z,8.25
2022-08-16T17:03:16.825Z,8.95
2022-08-16T17:05:58.601Z,11.32
2022-08-16T17:08:28.008Z,10.52
2022-08-16T17:10:57.267Z,8.75
2022-08-16T17:13:24.962Z,6.70
2022-08-16T17:15:53.930Z,7.53
2022-08-16T17:19:16.578Z,7.28
2022-08-16T17:21:11.917Z,9.65
2022-08-16T17:23:59.062Z,9.90
2022-08-16T17:26:29.991Z,7.30
2022-08-16T17:29:02.809Z,7.40
2022-08-16T17:31:43.220Z,7.18
2022-08-16T17:34:30.343Z,7.57
2022-08-16T17:36:58.996Z,21.20
2022-08-16T17:39:29.461Z,13.88
2022-08-16T17:41:57.576Z,9.65
2022-08-16T17:44:25.273Z,6.78
2022-08-16T17:46:53.212Z,8.23
2022-08-16T17:49:22.385Z,9.50
2022-08-16T17:51:49.787Z,7.07
2022-08-16T17:54:30.787Z,8.80
2022-08-16T17:56:58.737Z,9.23
2022-08-16T17:59:28.687Z,10.10
2022-08-16T18:01:56.354Z,14.13
2022-08-16T18:04:48.451Z,13.07
2022-08-16T18:07:12.785Z,17.25
2022-08-16T18:09:41.027Z,15.80
2022-08-16T18:12:44.064Z,9.18
2022-08-16T18:15:03.147Z,12.90
2022-08-16T18:17:31.239Z,10.57
2022-08-16T18:19:59.969Z,9.35
2022-08-16T18:22:30.743Z,13.50
2022-08-16T18:24:58.908Z,12.93
2022-08-16T18:27:28.364Z,10.25
2022-08-16T18:29:56.014Z,9.50
2022-08-16T18:32:24.754Z,9.88
2022-08-16T18:34:52.788Z,10.98
2022-08-16T18:37:23.440Z,9.73
2022-08-16T18:39:50.884Z,10.60
2022-08-16T18:42:18.327Z,8.10
2022-08-16T18:44:45.946Z,8.93
2022-08-16T18:47:13.387Z,13.75
2022-08-16T18:49:40.819Z,10.27
2022-08-16T18:52:08.270Z,14.73
2022-08-16T18:54:58.519Z,13.05
2022-08-16T18:57:24.355Z,10.90
2022-08-16T18:59:51.739Z,10.45
2022-08-16T19:02:56.905Z,11.52
2022-08-16T19:05:15.350Z,9.65
2022-08-16T19:07:42.825Z,37.20
2022-08-16T19:10:11.977Z,52.20
2022-08-16T19:12:52.150Z,30.02
2022-08-16T19:15:23.817Z,90.18
2022-08-16T19:17:51.249Z,60.65
2022-08-16T19:20:21.225Z,22.88
2022-08-16T19:23:04.470Z,16.05
2022-08-16T19:25:49.193Z,19.40
2022-08-16T19:28:52.004Z,15.88
2022-08-16T19:31:13.776Z,12.48
2022-08-16T19:33:53.706Z,16.65
2022-08-16T19:36:31.706Z,15.90
2022-08-16T19:39:04.581Z,20.70
2022-08-16T19:41:35.441Z,13.73
2022-08-16T19:44:03.362Z,10.20
2022-08-16T19:46:30.861Z,11.20
2022-08-16T19:48:58.286Z,11.18
2022-08-16T19:51:25.662Z,13.82
2022-08-16T19:53:53.068Z,11.88
2022-08-16T19:56:22.248Z,15.48
2022-08-16T19:59:17.449Z,10.07
2022-08-16T20:01:42.331Z,10.23
2022-08-16T20:04:12.122Z,13.90
2022-08-16T20:06:40.418Z,12.77
2022-08-16T20:09:08.158Z,12.07
2022-08-16T20:11:37.856Z,9.77
2022-08-16T20:14:06.789Z,13.55
2022-08-16T20:16:34.177Z,13.57
2022-08-16T20:19:01.553Z,11.10
2022-08-16T20:21:29.013Z,12.88
2022-08-16T20:24:15.886Z,14.85
2022-08-16T20:26:43.772Z,14.25
2022-08-16T20:29:12.721Z,9.73
2022-08-16T20:31:40.125Z,11.70
2022-08-16T20:34:07.535Z,11.40
2022-08-16T20:36:34.958Z,12.77
2022-08-16T20:39:04.838Z,13.10
2022-08-16T20:41:32.548Z,15.38
2022-08-16T20:43:59.946Z,13.75
2022-08-16T20:46:28.886Z,16.70
2022-08-16T20:48:56.265Z,13.23
2022-08-16T20:51:23.652Z,17.50
2022-08-16T20:53:51.308Z,13.85
2022-08-16T20:56:18.695Z,12.05
2022-08-16T20:58:46.072Z,11.88
2022-08-16T21:01:13.555Z,12.88
2022-08-16T21:03:42.294Z,12.43
2022-08-16T21:06:09.700Z,15.48
2022-08-16T21:08:53.156Z,11.57
2022-08-16T21:13:48.983Z,12.68
2022-08-16T21:16:18.011Z,15.05
2022-08-16T21:18:46.704Z,17.25
2022-08-16T21:21:14.101Z,16.63
2022-08-16T21:23:41.598Z,17.67
2022-08-16T21:26:11.040Z,14.80
2022-08-16T21:28:43.251Z,12.60
2022-08-16T21:31:11.738Z,16.37
2022-08-16T21:33:39.347Z,15.63
2022-08-16T21:36:08.865Z,14.18
2022-08-16T21:38:36.564Z,16.92
2022-08-16T21:41:05.382Z,13.32
2022-08-16T21:43:33.197Z,12.95
2022-08-16T21:46:01.424Z,15.10
2022-08-16T21:48:33.871Z,13.18
2022-08-16T21:51:03.169Z,19.98
2022-08-16T21:53:31.881Z,16.63
2022-08-16T21:56:00.291Z,16.08
2022-08-16T21:58:27.871Z,15.77
2022-08-16T22:00:55.677Z,15.77
2022-08-16T22:03:23.394Z,16.40
2022-08-16T22:06:11.699Z,14.60
2022-08-16T22:08:49.909Z,19.10
2022-08-16T22:11:19.753Z,17.45
2022-08-16T22:13:51.471Z,13.13
2022-08-16T22:16:26.998Z,14.13
2022-08-16T22:18:54.496Z,15.38
2022-08-16T22:21:21.884Z,19.25
2022-08-16T22:23:55.152Z,13.57
2022-08-16T22:26:30.733Z,16.20
2022-08-16T22:28:59.723Z,14.57
2022-08-16T22:31:27.358Z,14.73
2022-08-16T22:33:56.399Z,18.48
2022-08-16T22:36:23.800Z,15.18
2022-08-16T22:38:58.277Z,15.48
2022-08-16T22:41:26.914Z,14.55
2022-08-16T22:43:54.307Z,14.13
2022-08-16T22:46:21.713Z,15.27
2022-08-16T22:48:49.920Z,15.43
2022-08-16T22:51:17.427Z,18.40
2022-08-16T22:53:44.996Z,17.73
2022-08-16T22:56:15.494Z,20.98
2022-08-16T22:58:43.387Z,14.60
2022-08-16T23:01:12.674Z,12.15
2022-08-16T23:03:40.400Z,13.32
2022-08-16T23:06:08.272Z,16.17
2022-08-16T23:08:40.686Z,14.13
2022-08-16T23:11:09.982Z,12.53
2022-08-16T23:13:49.671Z,14.13
2022-08-16T23:16:22.486Z,14.38
2022-08-16T23:18:50.255Z,16.20
2022-08-16T23:21:18.545Z,14.68
2022-08-16T23:23:46.860Z,14.43
2022-08-16T23:26:36.375Z,15.70
2022-08-16T23:29:04.637Z,13.23
2022-08-16T23:31:32.419Z,12.10
2022-08-16T23:33:59.861Z,15.68
2022-08-16T23:36:27.296Z,13.55
2022-08-16T23:38:54.723Z,12.38
2022-08-16T23:41:22.111Z,15.07
2022-08-16T23:43:49.490Z,14.13
2022-08-16T23:46:19.491Z,13.38
2022-08-16T23:49:57.857Z,16.02
2022-08-16T23:51:34.868Z,16.80
2022-08-16T23:54:02.347Z,17.33
2022-08-16T23:56:32.059Z,19.00
2022-08-16T23:59:07.798Z,19.02
